Time;durP1;ratioP1;P1;durP2;ratioP2;P2;SDS_P1;SDS_P2;PMS_P1;PMS_P2;Temp;Humidity;BMP_temperature;BMP_pressure;BME280_temperature;BME280_humidity;BME280_pressure;Samples;Min_cycle;Max_cycle;Signal;HPM_P1;HPM_P2
2023/05/09 00:01:18;;;;;;;5.20;3.97;;;;;;;;;;5029132;28;20321;-52
2023/05/09 00:03:45;;;;;;;3.97;3.67;;;;;;;;;;5031952;28;20724;-51
2023/05/09 00:06:12;;;;;;;4.35;3.70;;;;;;;;;;5035197;28;20259;-53
2023/05/09 00:08:40;;;;;;;3.97;3.45;;;;;;;;;;5053863;28;20234;-53
2023/05/09 00:11:06;;;;;;;6.35;3.75;;;;;;;;;;5053717;28;20235;-51
2023/05/09 00:13:33;;;;;;;4.25;3.85;;;;;;;;;;5038568;28;20290;-51
2023/05/09 00:16:02;;;;;;;5.60;3.80;;;;;;;;;;5038180;28;20240;-52
2023/05/09 00:18:29;;;;;;;4.43;3.88;;;;;;;;;;5042852;28;20229;-52
2023/05/09 00:20:56;;;;;;;4.57;4.00;;;;;;;;;;5033367;28;20239;-52
2023/05/09 00:23:23;;;;;;;4.43;4.03;;;;;;;;;;5036210;28;20247;-51
2023/05/09 00:25:49;;;;;;;3.93;3.60;;;;;;;;;;5028832;28;20232;-50
2023/05/09 00:28:16;;;;;;;4.03;3.63;;;;;;;;;;5022499;28;20260;-51
2023/05/09 00:30:42;;;;;;;6.30;3.38;;;;;;;;;;5029136;28;20237;-51
2023/05/09 00:33:10;;;;;;;4.63;3.73;;;;;;;;;;5026760;28;20266;-50
2023/05/09 00:35:37;;;;;;;3.92;3.60;;;;;;;;;;5023457;28;20724;-51
2023/05/09 00:38:03;;;;;;;3.60;3.28;;;;;;;;;;5020572;28;20228;-50
2023/05/09 00:40:30;;;;;;;4.90;3.37;;;;;;;;;;5022918;28;20229;-51
2023/05/09 00:42:58;;;;;;;4.07;3.77;;;;;;;;;;5021424;28;20728;-52
2023/05/09 00:45:25;;;;;;;4.63;3.63;;;;;;;;;;5020167;28;20235;-53
2023/05/09 00:47:52;;;;;;;4.70;4.27;;;;;;;;;;5036408;28;20224;-52
2023/05/09 00:50:20;;;;;;;5.47;3.93;;;;;;;;;;5032635;28;20232;-52
2023/05/09 00:52:47;;;;;;;4.67;3.93;;;;;;;;;;5028514;28;20249;-51
2023/05/09 00:55:14;;;;;;;4.20;3.80;;;;;;;;;;5034514;28;20465;-52
2023/05/09 00:57:41;;;;;;;4.47;3.63;;;;;;;;;;5029114;28;20785;-51
2023/05/09 01:00:11;;;;;;;4.75;3.47;;;;;;;;;;5030068;28;20240;-51
2023/05/09 01:02:38;;;;;;;5.30;4.10;;;;;;;;;;5028856;28;20289;-51
2023/05/09 01:05:05;;;;;;;3.83;3.50;;;;;;;;;;5033776;28;20278;-52
2023/05/09 01:07:38;;;;;;;3.37;3.07;;;;;;;;;;5039030;28;20315;-51
2023/05/09 01:10:07;;;;;;;3.63;3.33;;;;;;;;;;5040352;28;20581;-51
2023/05/09 01:12:37;;;;;;;4.80;3.23;;;;;;;;;;5026145;28;20241;-51
2023/05/09 01:15:05;;;;;;;6.63;3.80;;;;;;;;;;5021840;28;20263;-50
2023/05/09 01:17:38;;;;;;;3.80;3.40;;;;;;;;;;5026170;28;20232;-50
2023/05/09 01:20:11;;;;;;;4.23;3.83;;;;;;;;;;5041479;28;20238;-51
2023/05/09 01:22:43;;;;;;;6.17;3.73;;;;;;;;;;5027373;28;20608;-51
2023/05/09 01:25:28;;;;;;;8.67;3.73;;;;;;;;;;5022113;28;20687;-50
2023/05/09 01:27:58;;;;;;;4.50;3.93;;;;;;;;;;5039247;28;20227;-51
2023/05/09 01:30:26;;;;;;;3.70;3.33;;;;;;;;;;5040142;28;20613;-50
2023/05/09 01:32:55;;;;;;;4.90;3.77;;;;;;;;;;5030846;28;20701;-51
2023/05/09 01:35:25;;;;;;;3.33;3.10;;;;;;;;;;5025906;28;20236;-52
2023/05/09 01:37:51;;;;;;;4.27;3.13;;;;;;;;;;5028497;28;20293;-51
2023/05/09 01:40:20;;;;;;;5.10;3.83;;;;;;;;;;5032736;28;20236;-51
2023/05/09 01:42:49;;;;;;;5.13;3.93;;;;;;;;;;5037794;28;20243;-51
2023/05/09 01:45:17;;;;;;;3.40;3.10;;;;;;;;;;5041945;28;20333;-51
2023/05/09 01:47:46;;;;;;;3.63;3.10;;;;;;;;;;5035033;28;20260;-51
2023/05/09 01:50:13;;;;;;;4.17;3.20;;;;;;;;;;5045298;28;20228;-52
2023/05/09 01:52:42;;;;;;;3.50;3.20;;;;;;;;;;5036314;28;20346;-52
2023/05/09 01:55:09;;;;;;;3.20;3.00;;;;;;;;;;5027709;28;20236;-51
2023/05/09 01:57:37;;;;;;;5.23;3.63;;;;;;;;;;5022110;28;20241;-51
2023/05/09 02:00:06;;;;;;;3.80;3.00;;;;;;;;;;5026989;28;20260;-51
2023/05/09 02:02:33;;;;;;;6.50;3.70;;;;;;;;;;5030517;28;20286;-51
2023/05/09 02:05:02;;;;;;;3.50;3.20;;;;;;;;;;5041678;28;20314;-51
2023/05/09 02:07:29;;;;;;;3.70;3.27;;;;;;;;;;5030829;28;20298;-51
2023/05/09 02:09:57;;;;;;;3.57;3.13;;;;;;;;;;5029418;28;20308;-51
2023/05/09 02:12:24;;;;;;;2.90;2.70;;;;;;;;;;5036176;28;20274;-51
2023/05/09 02:14:51;;;;;;;4.63;3.10;;;;;;;;;;5033170;28;20238;-50
2023/05/09 02:17:18;;;;;;;3.33;3.07;;;;;;;;;;5029083;28;20751;-51
2023/05/09 02:19:44;;;;;;;3.97;2.90;;;;;;;;;;5026636;28;20252;-52
2023/05/09 02:22:13;;;;;;;4.10;2.97;;;;;;;;;;5034736;28;20819;-51
2023/05/09 02:24:40;;;;;;;8.73;3.20;;;;;;;;;;5034887;28;20224;-50
2023/05/09 02:27:07;;;;;;;5.90;2.97;;;;;;;;;;5027083;28;20231;-50
2023/05/09 02:29:39;;;;;;;3.47;3.17;;;;;;;;;;5029091;28;20232;-51
2023/05/09 02:32:07;;;;;;;3.70;2.87;;;;;;;;;;5026020;28;20279;-52
2023/05/09 02:34:35;;;;;;;3.17;2.87;;;;;;;;;;5019650;28;20242;-50
2023/05/09 02:37:02;;;;;;;2.90;2.70;;;;;;;;;;5036642;28;20223;-52
2023/05/09 02:39:31;;;;;;;2.93;2.70;;;;;;;;;;5044311;28;20232;-51
2023/05/09 02:42:01;;;;;;;5.63;2.40;;;;;;;;;;5042733;28;20224;-51
2023/05/09 02:44:28;;;;;;;3.40;3.10;;;;;;;;;;5037659;28;20232;-51
2023/05/09 02:46:55;;;;;;;3.20;2.50;;;;;;;;;;5030684;28;20711;-52
2023/05/09 02:49:21;;;;;;;3.00;2.80;;;;;;;;;;5033348;28;20240;-50
2023/05/09 02:51:48;;;;;;;3.03;2.67;;;;;;;;;;5034611;28;20251;-51
2023/05/09 02:54:14;;;;;;;3.93;2.40;;;;;;;;;;5038978;28;20233;-51
2023/05/09 02:56:42;;;;;;;2.77;2.50;;;;;;;;;;5034049;28;20228;-51
2023/05/09 02:59:09;;;;;;;5.00;2.77;;;;;;;;;;5036866;28;20233;-51
2023/05/09 03:01:35;;;;;;;3.20;2.90;;;;;;;;;;5040674;28;20239;-51
2023/05/09 03:04:02;;;;;;;3.97;2.70;;;;;;;;;;5035642;28;20227;-51
2023/05/09 03:06:29;;;;;;;3.87;3.00;;;;;;;;;;5028594;28;20240;-53
2023/05/09 03:08:56;;;;;;;4.13;3.07;;;;;;;;;;5026265;28;20632;-51
2023/05/09 03:11:22;;;;;;;3.90;2.87;;;;;;;;;;5025830;28;20723;-50
2023/05/09 03:13:50;;;;;;;2.47;2.27;;;;;;;;;;5026609;28;20248;-50
2023/05/09 03:16:17;;;;;;;4.73;2.57;;;;;;;;;;5023234;28;20375;-52
2023/05/09 03:18:44;;;;;;;3.73;2.93;;;;;;;;;;5027258;28;20245;-51
2023/05/09 03:21:11;;;;;;;4.57;3.00;;;;;;;;;;5027853;28;20577;-52
2023/05/09 03:23:38;;;;;;;4.53;2.77;;;;;;;;;;5033004;28;20235;-50
2023/05/09 03:26:05;;;;;;;3.80;3.10;;;;;;;;;;5029268;28;20228;-52
2023/05/09 03:28:31;;;;;;;4.83;3.00;;;;;;;;;;5036126;28;20251;-51
2023/05/09 03:30:59;;;;;;;2.97;2.63;;;;;;;;;;5039155;28;20231;-52
2023/05/09 03:33:26;;;;;;;2.80;2.40;;;;;;;;;;5039800;28;20869;-52
2023/05/09 03:35:52;;;;;;;3.43;3.17;;;;;;;;;;5036372;28;20567;-52
2023/05/09 03:38:19;;;;;;;4.37;3.07;;;;;;;;;;5033004;28;20243;-51
2023/05/09 03:40:45;;;;;;;4.03;2.53;;;;;;;;;;5032166;28;20228;-51
2023/05/09 03:43:12;;;;;;;4.03;3.13;;;;;;;;;;5030871;28;20247;-51
2023/05/09 03:45:39;;;;;;;6.20;3.37;;;;;;;;;;5030362;28;20240;-49
2023/05/09 03:48:08;;;;;;;6.10;3.53;;;;;;;;;;5020728;28;20724;-50
2023/05/09 03:50:35;;;;;;;3.00;2.67;;;;;;;;;;5021434;28;20232;-50
2023/05/09 03:53:01;;;;;;;3.83;3.00;;;;;;;;;;5034888;28;20243;-51
2023/05/09 03:55:28;;;;;;;3.53;2.80;;;;;;;;;;5029021;28;20236;-50
2023/05/09 03:57:55;;;;;;;5.43;3.83;;;;;;;;;;5025220;28;20321;-51
2023/05/09 04:00:21;;;;;;;6.33;3.27;;;;;;;;;;5028612;28;20227;-52
2023/05/09 04:02:48;;;;;;;6.50;3.30;;;;;;;;;;5021575;28;20429;-52
2023/05/09 04:05:17;;;;;;;3.10;2.80;;;;;;;;;;5021985;28;20235;-52
2023/05/09 04:07:43;;;;;;;5.07;3.67;;;;;;;;;;5022992;28;20232;-51
2023/05/09 04:10:10;;;;;;;3.93;3.20;;;;;;;;;;5020012;28;20800;-50
2023/05/09 04:12:37;;;;;;;3.83;2.93;;;;;;;;;;5022897;28;20604;-51
2023/05/09 04:15:04;;;;;;;4.73;3.33;;;;;;;;;;5019697;28;20228;-51
2023/05/09 04:17:30;;;;;;;6.23;3.83;;;;;;;;;;5022448;28;20267;-51
2023/05/09 04:19:57;;;;;;;5.17;2.90;;;;;;;;;;5023931;28;20236;-50
2023/05/09 04:22:25;;;;;;;3.53;3.20;;;;;;;;;;5025193;28;20922;-51
2023/05/09 04:24:52;;;;;;;3.43;2.97;;;;;;;;;;5024677;28;20877;-50
2023/05/09 04:27:18;;;;;;;4.23;3.83;;;;;;;;;;5038230;28;20240;-52
2023/05/09 04:29:45;;;;;;;2.70;2.50;;;;;;;;;;5041443;28;20242;-51
2023/05/09 04:32:12;;;;;;;6.73;3.40;;;;;;;;;;5038848;28;20644;-51
2023/05/09 04:34:38;;;;;;;3.67;3.37;;;;;;;;;;5040025;28;20687;-51
2023/05/09 04:37:05;;;;;;;4.10;3.27;;;;;;;;;;5032320;28;20748;-52
2023/05/09 04:39:33;;;;;;;5.70;3.63;;;;;;;;;;5036385;28;20282;-51
2023/05/09 04:42:00;;;;;;;7.23;3.30;;;;;;;;;;5036142;28;20313;-52
2023/05/09 04:44:26;;;;;;;4.67;3.50;;;;;;;;;;5039322;28;20227;-52
2023/05/09 04:46:53;;;;;;;3.87;2.97;;;;;;;;;;5035334;28;20229;-51
2023/05/09 04:49:20;;;;;;;3.70;3.33;;;;;;;;;;5029239;28;20235;-51
2023/05/09 04:51:47;;;;;;;4.07;3.67;;;;;;;;;;5034091;28;20240;-53
2023/05/09 04:54:14;;;;;;;3.90;3.50;;;;;;;;;;5037398;28;21011;-51
2023/05/09 04:56:42;;;;;;;4.63;3.20;;;;;;;;;;5031352;28;20315;-51
2023/05/09 04:59:08;;;;;;;4.10;3.70;;;;;;;;;;5020961;28;20243;-51
2023/05/09 05:01:35;;;;;;;4.10;3.70;;;;;;;;;;5025734;28;20246;-51
2023/05/09 05:04:02;;;;;;;3.90;3.60;;;;;;;;;;5028796;28;20304;-50
2023/05/09 05:06:30;;;;;;;7.70;3.33;;;;;;;;;;5033023;28;20240;-52
2023/05/09 05:08:57;;;;;;;4.23;3.17;;;;;;;;;;5032164;28;20264;-51
2023/05/09 05:11:23;;;;;;;4.57;3.60;;;;;;;;;;5043065;28;20320;-50
2023/05/09 05:13:51;;;;;;;4.03;3.37;;;;;;;;;;5033218;28;20243;-51
2023/05/09 05:16:18;;;;;;;5.07;3.13;;;;;;;;;;5025666;28;20232;-52
2023/05/09 05:18:45;;;;;;;3.33;3.07;;;;;;;;;;5031451;28;20305;-50
2023/05/09 05:21:12;;;;;;;3.50;3.20;;;;;;;;;;5035094;28;20230;-51
2023/05/09 05:23:38;;;;;;;4.60;3.60;;;;;;;;;;5022139;28;20243;-52
2023/05/09 05:26:05;;;;;;;4.37;3.40;;;;;;;;;;5034088;28;20253;-51
2023/05/09 05:28:32;;;;;;;3.87;3.33;;;;;;;;;;5039184;28;20243;-51
2023/05/09 05:31:00;;;;;;;4.00;3.60;;;;;;;;;;5032161;28;20229;-51
2023/05/09 05:33:26;;;;;;;4.63;3.87;;;;;;;;;;5032465;28;20240;-50
2023/05/09 05:35:53;;;;;;;4.57;3.53;;;;;;;;;;5036919;28;20239;-50
2023/05/09 05:38:20;;;;;;;6.90;3.80;;;;;;;;;;5028740;28;20377;-51
2023/05/09 05:40:46;;;;;;;4.17;3.77;;;;;;;;;;5037212;28;20232;-51
2023/05/09 05:43:17;;;;;;;6.13;3.40;;;;;;;;;;5033394;28;20233;-51
2023/05/09 05:45:43;;;;;;;4.03;3.03;;;;;;;;;;5037871;28;20270;-50
2023/05/09 05:48:11;;;;;;;3.80;3.40;;;;;;;;;;5031330;28;20232;-51
2023/05/09 05:50:38;;;;;;;4.20;3.20;;;;;;;;;;5036727;28;20235;-51
2023/05/09 05:53:05;;;;;;;3.77;3.17;;;;;;;;;;5033097;28;20237;-51
2023/05/09 05:55:32;;;;;;;5.77;3.00;;;;;;;;;;5038970;28;20255;-50
2023/05/09 05:57:59;;;;;;;3.85;2.95;;;;;;;;;;5039970;28;20235;-51
2023/05/09 06:00:25;;;;;;;3.20;2.90;;;;;;;;;;5033737;28;20232;-51
2023/05/09 06:02:52;;;;;;;4.37;3.00;;;;;;;;;;5021204;28;20236;-52
2023/05/09 06:05:20;;;;;;;3.73;3.37;;;;;;;;;;5020241;28;20232;-50
2023/05/09 06:07:46;;;;;;;3.83;3.28;;;;;;;;;;5025254;28;20239;-52
2023/05/09 06:10:14;;;;;;;4.55;4.13;;;;;;;;;;5036380;28;20811;-52
2023/05/09 06:12:41;;;;;;;3.97;3.30;;;;;;;;;;5034020;28;20248;-51
2023/05/09 06:15:08;;;;;;;3.50;3.20;;;;;;;;;;5020675;28;20231;-52
2023/05/09 06:17:34;;;;;;;3.47;2.80;;;;;;;;;;5030367;28;20324;-51
2023/05/09 06:20:01;;;;;;;3.65;3.15;;;;;;;;;;5035788;28;20307;-51
2023/05/09 06:22:29;;;;;;;3.78;2.78;;;;;;;;;;5030561;28;20327;-51
2023/05/09 06:24:56;;;;;;;3.43;3.00;;;;;;;;;;5042119;28;20243;-50
2023/05/09 06:27:22;;;;;;;6.13;2.97;;;;;;;;;;5040985;28;20234;-50
2023/05/09 06:29:51;;;;;;;5.07;2.47;;;;;;;;;;5036849;28;20235;-51
2023/05/09 06:32:18;;;;;;;4.27;3.10;;;;;;;;;;5031366;28;20235;-52
2023/05/09 06:34:45;;;;;;;3.10;2.80;;;;;;;;;;5039899;28;20290;-51
2023/05/09 06:37:12;;;;;;;6.55;2.67;;;;;;;;;;5041326;28;20242;-52
2023/05/09 06:39:40;;;;;;;4.70;3.30;;;;;;;;;;5035312;28;20242;-51
2023/05/09 06:42:06;;;;;;;7.22;3.22;;;;;;;;;;5018347;28;20251;-53
2023/05/09 06:44:33;;;;;;;3.55;3.08;;;;;;;;;;5022462;28;20319;-51
2023/05/09 06:47:00;;;;;;;3.08;2.80;;;;;;;;;;5022600;28;20709;-52
2023/05/09 06:49:27;;;;;;;3.13;2.83;;;;;;;;;;5022776;28;20256;-52
2023/05/09 06:51:53;;;;;;;3.65;2.92;;;;;;;;;;5028499;28;20236;-51
2023/05/09 06:54:20;;;;;;;4.10;2.83;;;;;;;;;;5031885;28;20796;-53
2023/05/09 06:56:48;;;;;;;3.58;2.75;;;;;;;;;;5039292;28;20228;-52
2023/05/09 06:59:15;;;;;;;2.65;2.42;;;;;;;;;;5033794;28;20241;-51
2023/05/09 07:01:42;;;;;;;5.35;3.10;;;;;;;;;;5036546;28;20239;-52
2023/05/09 07:04:08;;;;;;;2.92;2.65;;;;;;;;;;5028624;28;20243;-50
2023/05/09 07:06:35;;;;;;;5.45;2.95;;;;;;;;;;5029227;28;20790;-52
2023/05/09 07:09:03;;;;;;;4.03;3.40;;;;;;;;;;5031075;28;20252;-50
2023/05/09 07:11:33;;;;;;;3.40;2.95;;;;;;;;;;5039538;28;20232;-51
2023/05/09 07:14:01;;;;;;;5.25;3.00;;;;;;;;;;5038591;28;20309;-50
2023/05/09 07:16:28;;;;;;;4.40;3.17;;;;;;;;;;5033459;28;20228;-51
2023/05/09 07:18:55;;;;;;;3.55;2.97;;;;;;;;;;5020327;28;20323;-51
2023/05/09 07:21:22;;;;;;;4.45;3.05;;;;;;;;;;5028660;28;20239;-52
2023/05/09 07:23:48;;;;;;;4.82;3.88;;;;;;;;;;5026978;28;20231;-51
2023/05/09 07:26:15;;;;;;;5.85;3.38;;;;;;;;;;5035380;28;20327;-51
2023/05/09 07:28:41;;;;;;;4.07;3.67;;;;;;;;;;5043607;28;20327;-51
2023/05/09 07:31:10;;;;;;;4.43;3.65;;;;;;;;;;5040299;28;20227;-54
2023/05/09 07:33:36;;;;;;;3.50;3.20;;;;;;;;;;5040851;28;20232;-50
2023/05/09 07:36:03;;;;;;;3.83;3.20;;;;;;;;;;5041848;28;20758;-52
2023/05/09 07:38:31;;;;;;;4.72;3.10;;;;;;;;;;5034554;28;20625;-51
2023/05/09 07:40:58;;;;;;;3.33;3.00;;;;;;;;;;5015919;28;20323;-52
2023/05/09 07:43:25;;;;;;;3.20;2.90;;;;;;;;;;5032844;28;20712;-52
2023/05/09 07:45:51;;;;;;;5.30;3.28;;;;;;;;;;5034307;28;20723;-50
2023/05/09 07:48:19;;;;;;;3.88;2.88;;;;;;;;;;5037646;28;20232;-52
2023/05/09 07:50:46;;;;;;;3.50;3.10;;;;;;;;;;5037354;28;20240;-51
2023/05/09 07:53:12;;;;;;;3.42;3.08;;;;;;;;;;5036144;28;20240;-51
2023/05/09 07:55:39;;;;;;;2.85;2.65;;;;;;;;;;5035613;28;20244;-51
2023/05/09 07:58:05;;;;;;;3.92;2.97;;;;;;;;;;5035930;28;20231;-53
2023/05/09 08:00:32;;;;;;;3.50;3.17;;;;;;;;;;5038349;28;20236;-51
2023/05/09 08:02:59;;;;;;;3.90;3.50;;;;;;;;;;5027395;28;20243;-50
2023/05/09 08:05:27;;;;;;;3.65;2.53;;;;;;;;;;5027763;28;20240;-51
2023/05/09 08:07:54;;;;;;;7.22;3.08;;;;;;;;;;5022148;28;20227;-50
2023/05/09 08:10:22;;;;;;;3.40;3.10;;;;;;;;;;5026182;28;20939;-51
2023/05/09 08:12:48;;;;;;;3.10;2.80;;;;;;;;;;5030197;28;20339;-51
2023/05/09 08:15:15;;;;;;;3.75;3.15;;;;;;;;;;5027904;28;20798;-51
2023/05/09 08:17:41;;;;;;;2.90;2.25;;;;;;;;;;5041207;28;20251;-51
2023/05/09 08:20:10;;;;;;;3.20;2.63;;;;;;;;;;5046975;28;20224;-51
2023/05/09 08:22:38;;;;;;;3.95;2.85;;;;;;;;;;5024979;28;20617;-51
2023/05/09 08:25:05;;;;;;;2.88;2.65;;;;;;;;;;5025768;28;20236;-50
2023/05/09 08:27:31;;;;;;;4.53;2.95;;;;;;;;;;5040937;28;20258;-52
2023/05/09 08:29:58;;;;;;;3.58;2.30;;;;;;;;;;5050811;28;20735;-51
2023/05/09 08:32:25;;;;;;;2.90;2.40;;;;;;;;;;5049715;28;20263;-51
2023/05/09 08:34:51;;;;;;;3.13;2.67;;;;;;;;;;5046421;28;20236;-51
2023/05/09 08:37:18;;;;;;;7.07;2.88;;;;;;;;;;5050488;28;20315;-50
2023/05/09 08:39:45;;;;;;;4.35;2.72;;;;;;;;;;5052062;28;20235;-51
2023/05/09 08:42:14;;;;;;;3.00;2.58;;;;;;;;;;5048559;28;20798;-52
2023/05/09 08:44:41;;;;;;;3.30;3.00;;;;;;;;;;5031417;28;20239;-53
2023/05/09 08:47:07;;;;;;;3.20;2.95;;;;;;;;;;5036526;28;20255;-53
2023/05/09 08:49:35;;;;;;;7.50;2.83;;;;;;;;;;5042174;28;20304;-55
2023/05/09 08:52:01;;;;;;;3.45;2.40;;;;;;;;;;5037028;28;20319;-51
2023/05/09 08:54:28;;;;;;;5.20;2.88;;;;;;;;;;5036218;28;20331;-51
2023/05/09 08:56:56;;;;;;;3.80;3.00;;;;;;;;;;5043321;28;20235;-51
2023/05/09 08:59:23;;;;;;;4.95;2.60;;;;;;;;;;5042096;28;20227;-54
2023/05/09 09:01:49;;;;;;;5.68;3.10;;;;;;;;;;5042372;28;20880;-51
2023/05/09 09:04:16;;;;;;;2.50;2.10;;;;;;;;;;5029659;28;20238;-52
2023/05/09 09:06:43;;;;;;;4.60;2.78;;;;;;;;;;5040544;28;20312;-51
2023/05/09 09:09:10;;;;;;;2.88;2.53;;;;;;;;;;5041263;28;20232;-51
2023/05/09 09:11:37;;;;;;;2.63;2.20;;;;;;;;;;5039671;28;20234;-52
2023/05/09 09:14:10;;;;;;;3.53;3.22;;;;;;;;;;5043793;28;20227;-53
2023/05/09 09:16:36;;;;;;;4.10;3.05;;;;;;;;;;5040346;28;20228;-51
2023/05/09 09:19:05;;;;;;;3.88;3.17;;;;;;;;;;5035965;28;20251;-51
2023/05/09 09:21:32;;;;;;;5.13;3.25;;;;;;;;;;5043220;28;20313;-49
2023/05/09 09:23:58;;;;;;;4.07;2.70;;;;;;;;;;5035576;28;20297;-51
2023/05/09 09:26:28;;;;;;;2.65;2.38;;;;;;;;;;5038627;28;20267;-51
2023/05/09 09:28:55;;;;;;;4.35;3.30;;;;;;;;;;5038320;28;20880;-51
2023/05/09 09:31:24;;;;;;;3.15;2.85;;;;;;;;;;5044428;28;20798;-49
2023/05/09 09:33:51;;;;;;;3.30;3.00;;;;;;;;;;5039446;28;20333;-52
2023/05/09 09:36:26;;;;;;;5.07;3.03;;;;;;;;;;5038037;28;20237;-50
2023/05/09 09:38:56;;;;;;;6.78;2.85;;;;;;;;;;5023690;28;20239;-50
2023/05/09 09:41:29;;;;;;;3.70;3.22;;;;;;;;;;5026959;28;20880;-50
2023/05/09 09:43:56;;;;;;;6.07;3.28;;;;;;;;;;5041465;28;20235;-51
2023/05/09 09:46:24;;;;;;;4.60;3.08;;;;;;;;;;5043403;28;20288;-51
2023/05/09 09:48:53;;;;;;;3.95;2.80;;;;;;;;;;5047212;28;20339;-53
2023/05/09 09:51:20;;;;;;;2.70;2.50;;;;;;;;;;5043049;28;20231;-49
2023/05/09 09:53:46;;;;;;;4.43;3.10;;;;;;;;;;5046170;28;20262;-51
2023/05/09 09:56:13;;;;;;;2.42;2.22;;;;;;;;;;5045482;28;20242;-52
2023/05/09 09:58:39;;;;;;;3.75;2.33;;;;;;;;;;5047213;28;20247;-51
2023/05/09 10:01:06;;;;;;;7.47;3.65;;;;;;;;;;5041916;28;20250;-52
2023/05/09 10:03:38;;;;;;;4.93;3.03;;;;;;;;;;5044617;28;20259;-52
2023/05/09 10:06:05;;;;;;;3.00;2.40;;;;;;;;;;5052949;28;20234;-52
2023/05/09 10:08:31;;;;;;;3.20;2.90;;;;;;;;;;5047516;28;20285;-52
2023/05/09 10:10:59;;;;;;;2.83;2.63;;;;;;;;;;5046930;28;20290;-52
2023/05/09 10:13:25;;;;;;;4.85;2.47;;;;;;;;;;5046592;28;20315;-58
2023/05/09 10:15:52;;;;;;;2.22;2.10;;;;;;;;;;5040697;28;20381;-51
2023/05/09 10:18:20;;;;;;;3.28;2.15;;;;;;;;;;5041448;28;20236;-52
2023/05/09 10:20:47;;;;;;;5.10;3.03;;;;;;;;;;5034992;28;20727;-51
2023/05/09 10:23:15;;;;;;;4.20;2.58;;;;;;;;;;5028287;28;20242;-51
2023/05/09 10:25:44;;;;;;;3.72;2.67;;;;;;;;;;5037446;28;20231;-51
2023/05/09 10:28:12;;;;;;;3.85;2.80;;;;;;;;;;5040546;28;20234;-51
2023/05/09 10:30:44;;;;;;;2.40;2.15;;;;;;;;;;5037816;28;20240;-51
2023/05/09 10:33:13;;;;;;;3.30;2.83;;;;;;;;;;5044034;28;20236;-52
2023/05/09 10:35:40;;;;;;;3.80;2.90;;;;;;;;;;5045584;28;20242;-51
2023/05/09 10:38:11;;;;;;;4.70;2.15;;;;;;;;;;5036942;28;20227;-50
2023/05/09 10:40:37;;;;;;;11.43;3.40;;;;;;;;;;5041227;28;20236;-51
2023/05/09 10:43:06;;;;;;;2.35;2.15;;;;;;;;;;5042155;28;20327;-52
2023/05/09 10:45:32;;;;;;;2.95;2.42;;;;;;;;;;5042415;28;20240;-51
2023/05/09 10:47:59;;;;;;;6.65;2.80;;;;;;;;;;5046867;28;20227;-51
2023/05/09 10:50:26;;;;;;;4.35;2.63;;;;;;;;;;5045046;28;20298;-51
2023/05/09 10:53:05;;;;;;;3.85;2.60;;;;;;;;;;5042490;28;20635;-51
2023/05/09 10:55:37;;;;;;;6.82;2.35;;;;;;;;;;5042821;28;20746;-51
2023/05/09 10:58:18;;;;;;;8.85;3.00;;;;;;;;;;5043082;28;20518;-51
2023/05/09 11:00:45;;;;;;;3.20;2.65;;;;;;;;;;5039193;28;20231;-53
2023/05/09 11:03:11;;;;;;;2.55;2.35;;;;;;;;;;5039535;28;20257;-51
2023/05/09 11:05:38;;;;;;;3.28;2.35;;;;;;;;;;5037671;28;20274;-51
2023/05/09 11:08:25;;;;;;;4.72;2.58;;;;;;;;;;5044874;28;20231;-52
2023/05/09 11:10:53;;;;;;;2.90;2.60;;;;;;;;;;5028865;28;20237;-51
2023/05/09 11:13:20;;;;;;;3.15;2.70;;;;;;;;;;5031190;28;21100;-50
2023/05/09 11:16:05;;;;;;;2.88;2.38;;;;;;;;;;5031637;28;20240;-52
2023/05/09 11:18:32;;;;;;;7.30;2.40;;;;;;;;;;5039667;28;20239;-52
2023/05/09 11:20:59;;;;;;;2.50;2.30;;;;;;;;;;5033456;28;20759;-51
2023/05/09 11:23:26;;;;;;;2.65;2.45;;;;;;;;;;5038765;28;20290;-51
2023/05/09 11:26:03;;;;;;;4.28;2.80;;;;;;;;;;5039575;28;20232;-51
2023/05/09 11:28:30;;;;;;;4.68;2.53;;;;;;;;;;5038876;28;20232;-53
2023/05/09 11:31:08;;;;;;;2.92;2.63;;;;;;;;;;5048193;28;20609;-53
2023/05/09 11:33:36;;;;;;;4.03;3.10;;;;;;;;;;5043029;28;20701;-53
2023/05/09 11:36:18;;;;;;;2.97;2.78;;;;;;;;;;5044014;28;20232;-51
2023/05/09 11:38:45;;;;;;;3.20;2.88;;;;;;;;;;5044596;28;20661;-51
2023/05/09 11:41:13;;;;;;;2.67;2.47;;;;;;;;;;5043231;28;20339;-51
2023/05/09 11:43:41;;;;;;;3.80;2.60;;;;;;;;;;5043189;28;20238;-52
2023/05/09 11:46:08;;;;;;;3.15;2.88;;;;;;;;;;5043420;28;20358;-50
2023/05/09 11:48:37;;;;;;;3.45;2.78;;;;;;;;;;5046763;28;20231;-51
2023/05/09 11:51:04;;;;;;;3.03;2.55;;;;;;;;;;5044367;28;20235;-52
2023/05/09 11:53:31;;;;;;;3.10;2.78;;;;;;;;;;5042839;28;20260;-52
2023/05/09 11:55:57;;;;;;;4.00;2.88;;;;;;;;;;5046062;28;20313;-52
2023/05/09 11:58:25;;;;;;;6.55;2.80;;;;;;;;;;5045017;28;20315;-51
2023/05/09 12:00:52;;;;;;;4.20;2.30;;;;;;;;;;5038724;28;20232;-51
2023/05/09 12:03:18;;;;;;;3.47;1.95;;;;;;;;;;5024716;28;20240;-52
2023/05/09 12:05:47;;;;;;;2.63;2.42;;;;;;;;;;5024625;28;20243;-52
2023/05/09 12:08:14;;;;;;;4.68;2.63;;;;;;;;;;5024336;28;20887;-51
2023/05/09 12:10:40;;;;;;;2.20;1.98;;;;;;;;;;5022838;28;20720;-52
2023/05/09 12:13:07;;;;;;;3.10;2.08;;;;;;;;;;5020973;28;20243;-52
2023/05/09 12:15:37;;;;;;;2.63;2.30;;;;;;;;;;5023507;28;20241;-51
2023/05/09 12:18:04;;;;;;;5.53;2.30;;;;;;;;;;5026085;28;20255;-50
2023/05/09 12:20:39;;;;;;;8.23;2.40;;;;;;;;;;5040958;28;20242;-52
2023/05/09 12:23:06;;;;;;;4.05;2.55;;;;;;;;;;5039395;28;20232;-51
2023/05/09 12:25:33;;;;;;;3.90;1.92;;;;;;;;;;5044457;28;20232;-51
2023/05/09 12:27:59;;;;;;;6.38;2.40;;;;;;;;;;5044198;28;20228;-52
2023/05/09 12:30:26;;;;;;;3.00;2.53;;;;;;;;;;5044755;28;20235;-50
2023/05/09 12:32:54;;;;;;;4.28;2.40;;;;;;;;;;5041612;28;20233;-51
2023/05/09 12:35:22;;;;;;;3.67;1.95;;;;;;;;;;5035032;28;20617;-52
2023/05/09 12:37:55;;;;;;;2.95;2.38;;;;;;;;;;5027824;28;20239;-50
2023/05/09 12:40:21;;;;;;;3.42;2.72;;;;;;;;;;5016289;28;20232;-52
2023/05/09 12:42:48;;;;;;;4.25;2.70;;;;;;;;;;5023134;28;20319;-52
2023/05/09 12:45:14;;;;;;;5.47;2.40;;;;;;;;;;5023592;28;20599;-52
2023/05/09 12:47:41;;;;;;;3.50;2.50;;;;;;;;;;5025698;28;20319;-51
2023/05/09 12:50:10;;;;;;;3.53;2.95;;;;;;;;;;5022065;28;20239;-52
2023/05/09 12:52:37;;;;;;;2.83;2.40;;;;;;;;;;5026154;28;20330;-53
2023/05/09 12:55:07;;;;;;;3.50;2.40;;;;;;;;;;5042295;28;20889;-51
2023/05/09 12:57:34;;;;;;;4.80;2.60;;;;;;;;;;5027234;28;20240;-52
2023/05/09 13:00:01;;;;;;;3.30;2.65;;;;;;;;;;5042710;28;20232;-52
2023/05/09 13:02:28;;;;;;;2.45;2.25;;;;;;;;;;5038510;28;20232;-51
2023/05/09 13:05:09;;;;;;;4.85;2.53;;;;;;;;;;5036857;28;20236;-52
2023/05/09 13:07:39;;;;;;;3.97;2.45;;;;;;;;;;5033082;28;20232;-52
2023/05/09 13:10:10;;;;;;;2.85;2.47;;;;;;;;;;5029476;28;20286;-51
2023/05/09 13:12:37;;;;;;;2.70;2.35;;;;;;;;;;5029951;28;20243;-52
2023/05/09 13:15:03;;;;;;;4.68;2.20;;;;;;;;;;5043046;28;20223;-51
2023/05/09 13:17:30;;;;;;;10.90;2.85;;;;;;;;;;5035472;28;20267;-53
2023/05/09 13:19:56;;;;;;;8.38;2.50;;;;;;;;;;5031310;28;20224;-51
2023/05/09 13:22:25;;;;;;;6.38;2.88;;;;;;;;;;5036605;28;20232;-52
2023/05/09 13:24:51;;;;;;;3.88;2.72;;;;;;;;;;5044259;28;20239;-52
2023/05/09 13:27:17;;;;;;;2.65;2.10;;;;;;;;;;5032178;28;20231;-51
2023/05/09 13:29:44;;;;;;;2.75;2.55;;;;;;;;;;5043889;28;20318;-50
2023/05/09 13:32:10;;;;;;;6.03;2.90;;;;;;;;;;5039494;28;20259;-50
2023/05/09 13:34:36;;;;;;;6.28;2.70;;;;;;;;;;5040540;28;20227;-52
2023/05/09 13:37:03;;;;;;;3.92;2.50;;;;;;;;;;5040347;28;20729;-51
2023/05/09 13:39:31;;;;;;;3.00;2.33;;;;;;;;;;5029678;28;20609;-52
2023/05/09 13:41:57;;;;;;;6.97;3.10;;;;;;;;;;5037386;28;20244;-53
2023/05/09 13:44:24;;;;;;;2.70;2.28;;;;;;;;;;5025768;28;20236;-51
2023/05/09 13:46:51;;;;;;;3.90;2.28;;;;;;;;;;5023435;28;20233;-52
2023/05/09 13:49:18;;;;;;;2.90;2.63;;;;;;;;;;5025500;28;20248;-51
2023/05/09 13:51:45;;;;;;;5.93;2.78;;;;;;;;;;5027932;28;20290;-52
2023/05/09 13:54:13;;;;;;;4.93;2.25;;;;;;;;;;5037492;28;20323;-51
2023/05/09 13:56:42;;;;;;;4.32;2.15;;;;;;;;;;5043478;28;20310;-51
2023/05/09 13:59:08;;;;;;;4.63;2.78;;;;;;;;;;5037501;28;20233;-51
2023/05/09 14:01:35;;;;;;;4.38;2.25;;;;;;;;;;5043466;28;20691;-50
2023/05/09 14:04:01;;;;;;;3.45;2.38;;;;;;;;;;5039674;28;20236;-52
2023/05/09 14:06:29;;;;;;;2.85;2.00;;;;;;;;;;5037900;28;20235;-51
2023/05/09 14:08:55;;;;;;;7.40;2.65;;;;;;;;;;5038765;28;20228;-50
2023/05/09 14:11:22;;;;;;;5.68;2.67;;;;;;;;;;5043641;28;20232;-51
2023/05/09 14:13:51;;;;;;;3.17;2.70;;;;;;;;;;5038205;28;20322;-52
2023/05/09 14:16:17;;;;;;;3.78;2.63;;;;;;;;;;5045849;28;20238;-51
2023/05/09 14:18:44;;;;;;;4.07;3.22;;;;;;;;;;5043647;28;20240;-52
2023/05/09 14:21:10;;;;;;;6.47;2.80;;;;;;;;;;5043987;28;20244;-51
2023/05/09 14:23:36;;;;;;;2.92;2.72;;;;;;;;;;5045886;28;20608;-51
2023/05/09 14:26:03;;;;;;;5.20;2.65;;;;;;;;;;5045881;28;20226;-51
2023/05/09 14:28:29;;;;;;;5.53;2.20;;;;;;;;;;5045363;28;20227;-51
2023/05/09 14:30:57;;;;;;;3.60;2.72;;;;;;;;;;5049003;28;20227;-51
2023/05/09 14:33:24;;;;;;;6.63;3.08;;;;;;;;;;5033599;28;20251;-52
2023/05/09 14:35:50;;;;;;;5.57;2.65;;;;;;;;;;5030636;28;20236;-52
2023/05/09 14:38:17;;;;;;;3.55;2.17;;;;;;;;;;5023893;28;20232;-51
2023/05/09 14:40:44;;;;;;;4.07;2.20;;;;;;;;;;5021595;28;20233;-51
2023/05/09 14:43:11;;;;;;;7.03;2.55;;;;;;;;;;5039643;28;20240;-51
2023/05/09 14:45:38;;;;;;;3.60;2.33;;;;;;;;;;5018950;28;20720;-49